createdAt,value
2023-03-22T00:00:32.746Z,386
2023-03-22T00:02:38.613Z,386
2023-03-22T00:04:44.531Z,386
2023-03-22T00:06:50.268Z,386
2023-03-22T00:08:55.911Z,387
2023-03-22T00:11:01.481Z,387
2023-03-22T00:13:09.387Z,386
2023-03-22T00:15:14.810Z,387
2023-03-22T00:17:20.500Z,386
2023-03-22T00:19:42.052Z,387
2023-03-22T00:21:47.699Z,387
2023-03-22T00:23:53.292Z,387
2023-03-22T00:25:59.387Z,387
2023-03-22T00:28:04.887Z,387
2023-03-22T00:30:10.847Z,387
2023-03-22T00:32:16.325Z,387
2023-03-22T00:34:22.168Z,387
2023-03-22T00:36:27.520Z,387
2023-03-22T00:38:45.825Z,387
2023-03-22T00:40:51.477Z,387
2023-03-22T00:42:57.097Z,387
2023-03-22T00:45:02.593Z,387
2023-03-22T00:47:08.047Z,387
2023-03-22T00:49:13.790Z,387
2023-03-22T00:51:19.586Z,387
2023-03-22T00:53:25.197Z,387
2023-03-22T00:55:31.023Z,387
2023-03-22T00:57:36.668Z,387
2023-03-22T00:59:42.058Z,387
2023-03-22T01:01:47.896Z,387
2023-03-22T01:03:54.001Z,387
2023-03-22T01:05:59.915Z,387
2023-03-22T01:08:05.646Z,387
2023-03-22T01:10:11.336Z,387
2023-03-22T01:12:16.928Z,387
2023-03-22T01:14:25.209Z,387
2023-03-22T01:16:33.624Z,387
2023-03-22T01:18:39.363Z,387
2023-03-22T01:20:45.584Z,387
2023-03-22T01:22:50.947Z,387
2023-03-22T01:24:56.409Z,387
2023-03-22T01:27:08.111Z,387
2023-03-22T01:29:13.568Z,387
2023-03-22T01:31:19.348Z,387
2023-03-22T01:33:24.996Z,387
2023-03-22T01:35:30.955Z,388
2023-03-22T01:37:36.791Z,387
2023-03-22T01:39:43.743Z,387
2023-03-22T01:41:50.493Z,388
2023-03-22T01:43:56.153Z,387
2023-03-22T01:46:02.104Z,387
2023-03-22T01:48:07.948Z,387
2023-03-22T01:50:13.601Z,387
2023-03-22T01:52:19.310Z,387
2023-03-22T01:54:24.934Z,387
2023-03-22T01:56:30.589Z,388
2023-03-22T01:58:36.212Z,388
2023-03-22T02:00:42.952Z,389
2023-03-22T02:02:48.885Z,388
2023-03-22T02:04:56.964Z,375
2023-03-22T02:07:02.713Z,381
2023-03-22T02:09:07.953Z,379
2023-03-22T02:11:13.857Z,390
2023-03-22T02:13:19.755Z,388
2023-03-22T02:15:25.489Z,388
2023-03-22T02:17:34.184Z,386
2023-03-22T02:19:39.629Z,381
2023-03-22T02:21:47.895Z,387
2023-03-22T02:23:53.851Z,388
2023-03-22T02:26:01.514Z,391
2023-03-22T02:28:07.084Z,385
2023-03-22T02:30:13.237Z,385
2023-03-22T02:32:21.899Z,385
2023-03-22T02:34:29.544Z,387
2023-03-22T02:36:35.007Z,386
2023-03-22T02:38:40.354Z,387
2023-03-22T02:40:45.876Z,387
2023-03-22T02:42:51.532Z,387
2023-03-22T02:44:57.257Z,387
2023-03-22T02:47:02.794Z,387
2023-03-22T02:49:08.171Z,389
2023-03-22T02:51:13.565Z,389
2023-03-22T02:53:19.238Z,389
2023-03-22T02:55:24.730Z,389
2023-03-22T02:57:30.378Z,389
2023-03-22T02:59:35.723Z,385
2023-03-22T03:01:41.446Z,387
2023-03-22T03:03:47.432Z,386
2023-03-22T03:05:53.134Z,388
2023-03-22T03:07:58.846Z,388
2023-03-22T03:10:04.208Z,387
2023-03-22T03:12:09.682Z,387
2023-03-22T03:14:15.188Z,387
2023-03-22T03:16:22.933Z,386
2023-03-22T03:18:28.690Z,386
2023-03-22T03:20:34.625Z,380
2023-03-22T03:22:40.128Z,386
2023-03-22T03:24:45.538Z,386
2023-03-22T03:26:50.991Z,386
2023-03-22T03:28:56.433Z,386
2023-03-22T03:31:01.937Z,386
2023-03-22T03:33:07.510Z,386
2023-03-22T03:35:13.113Z,387
2023-03-22T03:37:18.739Z,382
2023-03-22T03:39:24.074Z,386
2023-03-22T03:41:29.677Z,385
2023-03-22T03:43:35.346Z,389
2023-03-22T03:45:41.168Z,388
2023-03-22T03:47:47.139Z,389
2023-03-22T03:49:52.685Z,388
2023-03-22T03:51:58.212Z,388
2023-03-22T03:54:03.793Z,387
2023-03-22T03:56:09.186Z,382
2023-03-22T03:58:14.654Z,386
2023-03-22T04:00:20.207Z,384
2023-03-22T04:02:25.882Z,387
2023-03-22T04:04:31.970Z,387
2023-03-22T04:06:37.541Z,387
2023-03-22T04:08:43.033Z,387
2023-03-22T04:10:49.776Z,386
2023-03-22T04:12:55.463Z,385
2023-03-22T04:15:02.027Z,386
2023-03-22T04:17:07.787Z,387
2023-03-22T04:19:13.117Z,384
2023-03-22T04:21:18.596Z,388
2023-03-22T04:23:24.165Z,388
2023-03-22T04:25:29.747Z,388
2023-03-22T04:27:35.452Z,388
2023-03-22T04:29:41.184Z,388
2023-03-22T04:31:46.626Z,388
2023-03-22T04:33:52.046Z,387
2023-03-22T04:36:11.849Z,387
2023-03-22T04:38:17.507Z,387
2023-03-22T04:40:25.069Z,382
2023-03-22T04:42:30.472Z,386
2023-03-22T04:44:35.944Z,386
2023-03-22T04:46:41.613Z,388
2023-03-22T04:48:47.342Z,389
2023-03-22T04:50:52.824Z,389
2023-03-22T04:52:58.257Z,389
2023-03-22T04:55:03.628Z,389
2023-03-22T04:57:09.237Z,389
2023-03-22T04:59:14.816Z,390
2023-03-22T05:01:20.714Z,391
2023-03-22T05:03:26.509Z,390
2023-03-22T05:05:35.214Z,390
2023-03-22T05:07:41.132Z,390
2023-03-22T05:09:46.541Z,391
2023-03-22T05:11:52.194Z,390
2023-03-22T05:13:57.749Z,391
2023-03-22T05:16:03.652Z,391
2023-03-22T05:18:09.518Z,389
2023-03-22T05:20:15.189Z,390
2023-03-22T05:22:20.885Z,390
2023-03-22T05:24:26.853Z,389
2023-03-22T05:26:32.448Z,389
2023-03-22T05:28:37.943Z,386
2023-03-22T05:30:44.864Z,386
2023-03-22T05:32:50.510Z,387
2023-03-22T05:34:55.991Z,387
2023-03-22T05:37:02.162Z,387
2023-03-22T05:39:08.898Z,386
2023-03-22T05:41:14.394Z,385
2023-03-22T05:43:19.956Z,381
2023-03-22T05:45:25.620Z,382
2023-03-22T05:47:32.126Z,382
2023-03-22T05:49:37.447Z,382
2023-03-22T05:51:43.167Z,382
2023-03-22T05:53:48.873Z,382
2023-03-22T05:55:54.246Z,382
2023-03-22T05:57:59.840Z,384
2023-03-22T06:00:05.304Z,384
2023-03-22T06:02:10.997Z,388
2023-03-22T06:04:16.442Z,389
2023-03-22T06:06:22.007Z,389
2023-03-22T06:08:29.010Z,389
2023-03-22T06:10:34.383Z,389
2023-03-22T06:12:40.097Z,390
2023-03-22T06:14:45.641Z,391
2023-03-22T06:16:51.348Z,391
2023-03-22T06:18:56.682Z,391
2023-03-22T06:21:02.005Z,391
2023-03-22T06:23:07.625Z,389
2023-03-22T06:25:13.379Z,389
2023-03-22T06:27:18.852Z,389
2023-03-22T06:29:24.837Z,391
2023-03-22T06:31:30.384Z,391
2023-03-22T06:33:36.228Z,391
2023-03-22T06:35:42.062Z,391
2023-03-22T06:37:47.556Z,391
2023-03-22T06:39:53.365Z,391
2023-03-22T06:41:58.782Z,391
2023-03-22T06:44:04.561Z,391
2023-03-22T06:46:25.080Z,391
2023-03-22T06:48:30.945Z,391
2023-03-22T06:50:36.373Z,391
2023-03-22T06:52:43.199Z,391
2023-03-22T06:54:48.838Z,391
2023-03-22T06:56:55.431Z,391
2023-03-22T06:59:00.863Z,391
2023-03-22T07:01:06.227Z,391
2023-03-22T07:03:13.967Z,391
2023-03-22T07:05:19.274Z,391
2023-03-22T07:07:24.663Z,391
2023-03-22T07:09:30.647Z,391
2023-03-22T07:11:36.735Z,391
2023-03-22T07:13:42.570Z,391
2023-03-22T07:15:48.318Z,391
2023-03-22T07:17:53.791Z,391
2023-03-22T07:19:59.338Z,391
2023-03-22T07:22:04.810Z,391
2023-03-22T07:24:10.640Z,391
2023-03-22T07:26:16.472Z,391
2023-03-22T07:28:22.065Z,391
2023-03-22T07:30:27.368Z,391
2023-03-22T07:32:33.225Z,391
2023-03-22T07:34:38.754Z,391
2023-03-22T07:36:44.291Z,391
2023-03-22T07:38:49.680Z,391
2023-03-22T07:40:55.034Z,391
2023-03-22T07:43:00.677Z,391
2023-03-22T07:45:07.422Z,391
2023-03-22T07:47:13.138Z,391
2023-03-22T07:49:18.719Z,391
2023-03-22T07:51:24.146Z,391
2023-03-22T07:53:29.791Z,391
2023-03-22T07:55:35.385Z,391
2023-03-22T07:57:41.057Z,391
2023-03-22T07:59:46.662Z,391
2023-03-22T08:01:52.515Z,391
2023-03-22T08:03:58.185Z,391
2023-03-22T08:06:06.334Z,391
2023-03-22T08:08:12.008Z,391
2023-03-22T08:10:19.335Z,391
2023-03-22T08:12:25.329Z,391
2023-03-22T08:48:30.128Z,394
2023-03-22T08:58:25.361Z,394
2023-03-22T09:28:08.455Z,396
2023-03-22T09:30:17.216Z,396
2023-03-22T10:05:16.825Z,396
2023-03-22T10:07:22.316Z,396
2023-03-22T10:09:29.266Z,396
2023-03-22T10:11:34.529Z,396
2023-03-22T10:13:40.278Z,396
2023-03-22T10:15:47.894Z,396
2023-03-22T10:17:54.145Z,396
2023-03-22T10:20:00.202Z,396
2023-03-22T10:22:06.067Z,396
2023-03-22T10:24:11.956Z,396
2023-03-22T10:26:17.573Z,396
2023-03-22T10:28:23.325Z,396
2023-03-22T10:30:28.986Z,396
2023-03-22T10:32:34.609Z,396
2023-03-22T10:34:49.438Z,396
2023-03-22T10:36:54.945Z,396
2023-03-22T10:39:00.504Z,396
2023-03-22T10:41:06.782Z,396
2023-03-22T10:43:13.616Z,396
2023-03-22T10:45:19.564Z,396
2023-03-22T10:47:25.517Z,397
2023-03-22T10:49:31.116Z,396
2023-03-22T10:51:36.817Z,396
2023-03-22T10:53:42.223Z,396
2023-03-22T10:55:48.471Z,396
2023-03-22T10:57:54.117Z,396
2023-03-22T11:00:00.057Z,396
2023-03-22T11:02:06.637Z,396
2023-03-22T11:04:12.389Z,376
2023-03-22T11:06:18.414Z,354
2023-03-22T11:08:24.388Z,336
2023-03-22T11:10:30.224Z,327
2023-03-22T11:12:35.747Z,321
2023-03-22T11:14:44.543Z,317
2023-03-22T11:16:50.141Z,315
2023-03-22T11:18:57.177Z,313
2023-03-22T11:21:05.893Z,313
2023-03-22T11:23:11.841Z,313
2023-03-22T11:25:18.770Z,313
2023-03-22T11:27:24.692Z,310
2023-03-22T11:29:30.088Z,310
2023-03-22T11:31:35.874Z,312
2023-03-22T11:33:41.939Z,313
2023-03-22T11:35:47.874Z,315
2023-03-22T11:37:53.660Z,316
2023-03-22T11:40:01.005Z,316
2023-03-22T11:42:06.863Z,317
2023-03-22T11:44:12.338Z,317
2023-03-22T11:46:18.730Z,318
2023-03-22T11:48:24.848Z,319
2023-03-22T11:50:30.622Z,319
2023-03-22T11:52:36.060Z,317
2023-03-22T11:54:41.590Z,321
2023-03-22T11:56:47.186Z,321
2023-03-22T11:58:53.399Z,321
2023-03-22T12:00:59.060Z,322
2023-03-22T12:03:05.098Z,325
2023-03-22T12:05:11.441Z,325
2023-03-22T12:07:17.403Z,326
2023-03-22T12:09:22.943Z,326
2023-03-22T12:11:28.564Z,327
2023-03-22T12:13:34.104Z,328
2023-03-22T12:15:39.895Z,328
2023-03-22T12:17:49.442Z,329
2023-03-22T12:19:55.525Z,329
2023-03-22T12:22:01.001Z,330
2023-03-22T12:24:06.873Z,330
2023-03-22T12:26:12.804Z,330
2023-03-22T12:28:18.243Z,331
2023-03-22T12:30:23.817Z,330
2023-03-22T12:32:29.758Z,329
2023-03-22T12:34:35.281Z,329
2023-03-22T12:36:40.956Z,330
2023-03-22T12:38:47.476Z,330
2023-03-22T12:40:52.783Z,331
2023-03-22T12:43:02.249Z,331
2023-03-22T12:45:08.641Z,332
2023-03-22T12:47:14.155Z,333
2023-03-22T12:49:19.760Z,331
2023-03-22T12:51:25.225Z,334
2023-03-22T12:53:30.841Z,334
2023-03-22T12:55:36.573Z,336
2023-03-22T12:57:42.651Z,331
2023-03-22T12:59:48.726Z,341
2023-03-22T13:01:54.677Z,342
2023-03-22T13:04:01.359Z,343
2023-03-22T13:06:07.438Z,343
2023-03-22T13:08:13.220Z,341
2023-03-22T13:10:19.543Z,341
2023-03-22T13:12:25.306Z,341
2023-03-22T13:14:30.920Z,341
2023-03-22T13:16:36.785Z,340
2023-03-22T13:18:42.963Z,340
2023-03-22T13:20:48.880Z,343
2023-03-22T13:22:54.311Z,343
2023-03-22T13:25:00.191Z,344
2023-03-22T13:27:05.805Z,341
2023-03-22T13:29:11.396Z,339
2023-03-22T13:31:16.895Z,345
2023-03-22T13:33:23.059Z,346
2023-03-22T13:35:29.648Z,346
2023-03-22T13:37:35.537Z,346
2023-03-22T13:39:40.948Z,346
2023-03-22T13:41:46.367Z,344
2023-03-22T13:43:51.847Z,343
2023-03-22T13:45:57.313Z,244
2023-03-22T13:48:05.590Z,349
2023-03-22T13:50:11.189Z,346
2023-03-22T13:52:17.169Z,351
2023-03-22T13:54:23.201Z,351
2023-03-22T13:56:29.355Z,351
2023-03-22T13:58:35.002Z,346
2023-03-22T14:00:41.452Z,349
2023-03-22T14:02:48.797Z,345
2023-03-22T14:04:54.921Z,346
2023-03-22T14:07:01.039Z,310
2023-03-22T14:09:07.072Z,345
2023-03-22T14:11:13.896Z,344
2023-03-22T14:13:19.761Z,350
2023-03-22T14:15:26.704Z,348
2023-03-22T14:17:32.795Z,350
2023-03-22T14:19:39.059Z,349
2023-03-22T14:21:45.136Z,350
2023-03-22T14:46:03.445Z,350
2023-03-22T14:48:12.334Z,350
2023-03-22T14:50:19.882Z,349
2023-03-22T14:52:27.522Z,354
2023-03-22T14:54:34.367Z,354
2023-03-22T14:56:40.985Z,354
2023-03-22T14:58:48.013Z,354
2023-03-22T15:00:54.387Z,354
2023-03-22T15:03:01.276Z,354
2023-03-22T15:05:08.436Z,354
2023-03-22T15:07:14.898Z,354
2023-03-22T15:09:21.321Z,354
2023-03-22T15:11:28.087Z,354
2023-03-22T15:13:34.946Z,354
2023-03-22T15:15:42.783Z,354
2023-03-22T15:17:49.971Z,354
2023-03-22T15:19:57.089Z,354
2023-03-22T15:22:05.919Z,354
2023-03-22T15:24:12.847Z,354
2023-03-22T15:26:20.988Z,354
2023-03-22T15:28:27.804Z,353
2023-03-22T15:30:34.250Z,354
2023-03-22T15:32:41.980Z,354
2023-03-22T15:34:49.357Z,354
2023-03-22T15:36:57.450Z,355
2023-03-22T15:39:04.868Z,355
2023-03-22T15:41:12.393Z,353
2023-03-22T15:43:20.582Z,355
2023-03-22T15:45:28.181Z,355
2023-03-22T15:47:35.028Z,354
2023-03-22T15:49:41.814Z,353
2023-03-22T15:51:49.394Z,353
2023-03-22T15:53:56.814Z,351
2023-03-22T15:56:04.305Z,353
2023-03-22T15:58:11.171Z,350
2023-03-22T16:00:19.024Z,352
2023-03-22T16:02:27.380Z,351
2023-03-22T16:04:33.883Z,353
2023-03-22T16:06:41.586Z,353
2023-03-22T16:08:48.404Z,353
2023-03-22T16:10:55.284Z,352
2023-03-22T16:13:02.838Z,355
2023-03-22T16:15:11.389Z,356
2023-03-22T16:17:18.591Z,356
2023-03-22T16:19:25.217Z,356
2023-03-22T16:21:31.508Z,356
2023-03-22T16:23:39.414Z,356
2023-03-22T16:25:47.849Z,356
2023-03-22T16:27:54.614Z,356
2023-03-22T16:30:01.850Z,356
2023-03-22T16:32:09.365Z,356
2023-03-22T16:34:17.078Z,356
2023-03-22T16:36:24.353Z,356
2023-03-22T16:38:31.070Z,356
2023-03-22T16:40:38.635Z,356
2023-03-22T16:42:46.075Z,356
2023-03-22T16:44:57.553Z,356
2023-03-22T16:47:04.290Z,356
2023-03-22T16:49:11.602Z,356
2023-03-22T16:51:20.584Z,356
2023-03-22T16:53:40.414Z,356
2023-03-22T16:55:48.229Z,356
2023-03-22T16:57:55.602Z,356
2023-03-22T17:00:02.516Z,356
2023-03-22T17:02:09.515Z,356
2023-03-22T17:04:18.702Z,356
2023-03-22T17:06:26.752Z,356
2023-03-22T17:08:34.133Z,356
2023-03-22T17:10:41.416Z,356
2023-03-22T17:12:49.097Z,356
2023-03-22T17:14:59.023Z,355
2023-03-22T17:17:06.140Z,355
2023-03-22T17:19:14.198Z,355
2023-03-22T17:21:21.157Z,354
2023-03-22T17:23:29.376Z,354
2023-03-22T17:25:36.594Z,354
2023-03-22T17:27:44.026Z,354
2023-03-22T17:29:50.749Z,354
2023-03-22T17:32:16.738Z,354
2023-03-22T17:34:56.889Z,354
2023-03-22T17:37:04.399Z,353
2023-03-22T17:40:35.663Z,350
2023-03-22T17:42:56.407Z,351
2023-03-22T17:45:06.798Z,351
2023-03-22T17:49:49.634Z,351
2023-03-22T17:51:57.552Z,351
2023-03-22T18:00:34.742Z,352
2023-03-22T18:02:43.829Z,352
2023-03-22T18:04:57.550Z,352
2023-03-22T18:07:08.344Z,351
2023-03-22T18:09:19.171Z,353
2023-03-22T18:11:29.289Z,351
2023-03-22T18:13:41.073Z,352
2023-03-22T18:15:50.310Z,353
2023-03-22T18:18:01.659Z,352
2023-03-22T18:20:46.314Z,353
2023-03-22T18:23:07.819Z,351
2023-03-22T18:25:16.368Z,349
2023-03-22T18:27:24.597Z,356
2023-03-22T18:29:35.991Z,356
2023-03-22T18:31:44.592Z,354
2023-03-22T18:33:53.966Z,354
2023-03-22T18:36:04.632Z,354
2023-03-22T18:38:45.613Z,355
2023-03-22T18:42:18.908Z,351
2023-03-22T18:44:45.713Z,355
2023-03-22T18:46:58.349Z,351
2023-03-22T18:49:09.488Z,351
2023-03-22T18:51:21.885Z,350
2023-03-22T18:53:34.064Z,354
2023-03-22T18:56:06.362Z,354
2023-03-22T18:58:18.329Z,353
2023-03-22T19:00:30.458Z,350
2023-03-22T19:02:45.262Z,350
2023-03-22T19:04:57.214Z,351
2023-03-22T19:07:30.303Z,354
2023-03-22T19:10:07.420Z,354
2023-03-22T19:12:18.906Z,353
2023-03-22T19:15:42.260Z,349
2023-03-22T19:17:59.326Z,353
2023-03-22T19:20:13.063Z,353
2023-03-22T19:22:31.140Z,353
2023-03-22T19:24:43.028Z,350
2023-03-22T19:27:24.521Z,353
2023-03-22T19:29:36.288Z,353
2023-03-22T19:31:46.401Z,354
2023-03-22T19:34:00.795Z,354
2023-03-22T19:36:13.772Z,354
2023-03-22T19:38:25.824Z,354
2023-03-22T19:43:59.990Z,354
2023-03-22T19:46:18.909Z,351
2023-03-22T19:48:37.365Z,351
2023-03-22T19:50:59.770Z,350
2023-03-22T19:56:54.090Z,351
2023-03-22T19:59:20.999Z,353
2023-03-22T20:01:31.911Z,353
2023-03-22T20:03:45.108Z,354
2023-03-22T20:05:58.392Z,354
2023-03-22T20:08:13.086Z,354
2023-03-22T20:10:26.065Z,354
2023-03-22T20:12:38.081Z,355
2023-03-22T20:14:49.072Z,355
2023-03-22T20:19:34.528Z,355
2023-03-22T20:21:45.440Z,355
2023-03-22T20:23:59.743Z,355
2023-03-22T20:26:13.676Z,355
2023-03-22T20:28:23.302Z,355
2023-03-22T20:30:49.816Z,356
2023-03-22T20:33:00.949Z,355
2023-03-22T20:35:11.933Z,356
2023-03-22T20:37:24.740Z,356
2023-03-22T20:39:54.869Z,356
2023-03-22T20:42:05.060Z,356
2023-03-22T20:44:16.992Z,356
2023-03-22T20:46:27.628Z,356
2023-03-22T20:48:41.128Z,356
2023-03-22T20:50:55.203Z,356
2023-03-22T20:53:04.806Z,356
2023-03-22T20:55:17.860Z,356
2023-03-22T20:57:27.466Z,356
2023-03-22T20:59:39.873Z,356
2023-03-22T21:01:52.956Z,356
2023-03-22T21:04:01.478Z,356
2023-03-22T21:06:09.640Z,356
2023-03-22T21:08:18.345Z,356
2023-03-22T21:10:25.198Z,356
2023-03-22T21:12:32.954Z,356
2023-03-22T21:14:41.359Z,356
2023-03-22T21:16:48.344Z,356
2023-03-22T21:18:55.798Z,357
2023-03-22T21:21:02.593Z,357
2023-03-22T21:23:09.985Z,356
2023-03-22T21:25:18.968Z,356
2023-03-22T21:27:28.352Z,356
2023-03-22T21:29:35.808Z,356
2023-03-22T21:31:42.674Z,356
2023-03-22T21:33:49.643Z,356
2023-03-22T21:35:57.115Z,356
2023-03-22T21:38:05.175Z,357
2023-03-22T21:40:12.553Z,356
2023-03-22T21:42:19.304Z,357
2023-03-22T21:44:25.968Z,357
2023-03-22T21:46:32.343Z,357
2023-03-22T21:48:39.841Z,357
2023-03-22T21:50:46.660Z,357
2023-03-22T21:52:54.469Z,356
2023-03-22T21:55:01.311Z,356
2023-03-22T21:57:08.674Z,356
2023-03-22T21:59:15.719Z,356
2023-03-22T22:01:23.072Z,356
2023-03-22T22:03:29.856Z,356
2023-03-22T22:05:37.240Z,356
2023-03-22T22:07:43.992Z,356
2023-03-22T22:09:51.499Z,356
2023-03-22T22:11:58.832Z,356
2023-03-22T22:14:05.289Z,356
2023-03-22T22:16:12.057Z,357
2023-03-22T22:18:18.531Z,356
2023-03-22T22:20:25.703Z,357
2023-03-22T22:22:32.321Z,357
2023-03-22T22:24:39.567Z,356
2023-03-22T22:26:48.450Z,356
2023-03-22T22:28:55.050Z,356
2023-03-22T22:31:01.786Z,356
2023-03-22T22:33:07.978Z,356
2023-03-22T22:35:14.828Z,356
2023-03-22T22:37:21.463Z,356
2023-03-22T22:39:28.219Z,357
2023-03-22T22:41:35.232Z,357
2023-03-22T22:43:41.840Z,356
2023-03-22T22:45:48.705Z,357
2023-03-22T22:47:55.637Z,357
2023-03-22T22:50:02.375Z,357
2023-03-22T22:52:09.019Z,357
2023-03-22T22:54:15.541Z,357
2023-03-22T22:56:22.414Z,357
2023-03-22T22:58:29.526Z,357
2023-03-22T23:00:36.716Z,357
2023-03-22T23:02:43.453Z,357
2023-03-22T23:04:51.545Z,357
2023-03-22T23:06:58.670Z,357
2023-03-22T23:09:05.884Z,357
2023-03-22T23:11:12.506Z,356
2023-03-22T23:13:19.471Z,357
2023-03-22T23:15:30.439Z,357
2023-03-22T23:17:36.942Z,357
2023-03-22T23:19:43.965Z,357
2023-03-22T23:21:50.212Z,357
2023-03-22T23:23:57.024Z,357
2023-03-22T23:26:03.703Z,357
2023-03-22T23:28:11.295Z,357
2023-03-22T23:30:17.762Z,357
2023-03-22T23:32:24.330Z,357
2023-03-22T23:34:30.906Z,357
2023-03-22T23:36:37.408Z,357
2023-03-22T23:38:43.805Z,357
2023-03-22T23:40:50.959Z,357
2023-03-22T23:42:57.386Z,357
2023-03-22T23:45:04.520Z,357
2023-03-22T23:47:12.316Z,357
2023-03-22T23:49:20.111Z,357
2023-03-22T23:51:26.800Z,357
2023-03-22T23:53:34.072Z,357
2023-03-22T23:55:40.917Z,357
2023-03-22T23:57:47.645Z,357
2023-03-22T23:59:55.463Z,357
